Time;durP1;ratioP1;P1;durP2;ratioP2;P2;SDS_P1;SDS_P2;PMS_P1;PMS_P2;Temp;Humidity;BMP_temperature;BMP_pressure;BME280_temperature;BME280_humidity;BME280_pressure;Samples;Min_cycle;Max_cycle;Signal;HPM_P1;HPM_P2
2022/08/28 00:00:34;;;;;;;17.77;9.50;;;24.60;74.80;;;;;;6099737;23;20003;-66
2022/08/28 00:03:00;;;;;;;16.58;9.27;;;24.60;74.70;;;;;;6099971;23;20014;-66
2022/08/28 00:05:29;;;;;;;17.02;9.23;;;24.60;74.40;;;;;;6100365;23;20002;-66
2022/08/28 00:07:55;;;;;;;18.73;10.15;;;24.60;74.10;;;;;;6099931;23;20002;-67
2022/08/28 00:10:23;;;;;;;13.48;10.20;;;24.60;74.10;;;;;;6100188;23;20061;-66
2022/08/28 00:12:50;;;;;;;15.00;9.63;;;24.60;74.10;;;;;;6074442;23;20330;-66
2022/08/28 00:15:22;;;;;;;17.77;9.23;;;24.60;74.20;;;;;;6100057;23;20026;-66
2022/08/28 00:17:49;;;;;;;15.75;9.88;;;24.60;74.30;;;;;;6100087;23;20026;-67
2022/08/28 00:20:17;;;;;;;13.68;9.60;;;24.60;74.40;;;;;;6099217;23;20017;-66
2022/08/28 00:22:44;;;;;;;15.10;9.65;;;24.60;74.70;;;;;;6097872;23;20382;-66
2022/08/28 00:25:12;;;;;;;13.95;8.23;;;24.60;74.90;;;;;;6098415;23;19998;-66
2022/08/28 00:27:54;;;;;;;12.15;7.68;;;24.60;74.80;;;;;;6098085;23;20030;-66
2022/08/28 00:30:20;;;;;;;14.75;8.10;;;24.60;74.50;;;;;;6098222;23;20018;-66
2022/08/28 00:32:47;;;;;;;13.32;8.55;;;24.50;74.30;;;;;;6098341;23;20418;-66
2022/08/28 00:35:12;;;;;;;12.65;8.98;;;24.60;74.40;;;;;;6098424;23;20013;-66
2022/08/28 00:37:38;;;;;;;17.48;9.13;;;24.60;74.50;;;;;;6098153;23;19998;-66
2022/08/28 00:40:07;;;;;;;13.68;8.70;;;24.50;74.60;;;;;;6098272;23;20403;-66
2022/08/28 00:42:33;;;;;;;14.43;7.78;;;24.50;74.60;;;;;;6097971;23;20022;-66
2022/08/28 00:44:59;;;;;;;13.88;7.72;;;24.50;75.10;;;;;;6098490;23;20003;-66
2022/08/28 00:47:27;;;;;;;17.42;9.45;;;24.50;74.50;;;;;;6098376;23;20471;-66
2022/08/28 00:49:55;;;;;;;19.15;9.38;;;24.50;74.60;;;;;;6098371;23;20090;-66
2022/08/28 00:52:23;;;;;;;18.75;8.68;;;24.50;74.60;;;;;;6098180;23;20081;-66
2022/08/28 00:55:01;;;;;;;18.90;8.10;;;24.50;74.60;;;;;;6097911;23;20010;-66
2022/08/28 00:57:32;;;;;;;12.30;8.10;;;24.50;74.60;;;;;;6098252;23;20050;-66
2022/08/28 00:59:59;;;;;;;12.45;8.20;;;24.40;74.50;;;;;;6097729;23;20105;-66
2022/08/28 01:02:26;;;;;;;14.65;8.48;;;24.40;74.50;;;;;;6097915;23;20014;-66
2022/08/28 01:04:53;;;;;;;11.32;7.40;;;24.40;74.50;;;;;;6097875;23;20430;-66
2022/08/28 01:07:22;;;;;;;13.35;7.47;;;24.30;74.40;;;;;;6097759;23;20440;-65
2022/08/28 01:09:51;;;;;;;11.57;7.90;;;24.30;74.40;;;;;;6098069;23;20392;-66
2022/08/28 01:12:21;;;;;;;18.20;8.23;;;24.30;74.40;;;;;;6097715;23;20034;-66
2022/08/28 01:14:50;;;;;;;11.80;8.23;;;24.30;74.50;;;;;;6097855;23;20006;-66
2022/08/28 01:17:19;;;;;;;13.80;8.63;;;24.30;74.60;;;;;;6097852;23;20011;-66
2022/08/28 01:19:55;;;;;;;16.15;9.18;;;24.30;74.80;;;;;;6097714;23;19994;-66
2022/08/28 01:23:09;;;;;;;16.40;8.65;;;24.40;74.90;;;;;;6098066;23;20023;-66
2022/08/28 01:25:36;;;;;;;16.90;9.93;;;24.30;74.80;;;;;;6019825;23;20086;-67
2022/08/28 01:28:06;;;;;;;12.68;9.13;;;24.30;75.00;;;;;;6097979;23;20006;-66
2022/08/28 01:30:32;;;;;;;19.50;9.65;;;24.40;75.10;;;;;;6097552;23;20006;-65
2022/08/28 01:32:57;;;;;;;11.48;8.85;;;24.40;75.30;;;;;;6097442;23;19998;-66
2022/08/28 01:35:27;;;;;;;14.68;9.10;;;24.30;75.20;;;;;;6097707;23;20041;-66
2022/08/28 01:37:55;;;;;;;15.95;9.15;;;24.40;75.20;;;;;;6098040;23;20326;-66
2022/08/28 01:40:27;;;;;;;15.95;9.38;;;24.30;75.30;;;;;;6097919;23;20342;-66
2022/08/28 01:42:54;;;;;;;12.65;8.88;;;24.30;75.20;;;;;;6097445;23;20023;-66
2022/08/28 01:45:22;;;;;;;15.52;9.70;;;24.30;75.30;;;;;;6097705;23;20077;-66
2022/08/28 01:47:49;;;;;;;14.38;10.10;;;24.30;75.60;;;;;;6097731;23;20011;-66
2022/08/28 01:50:18;;;;;;;14.27;9.20;;;23.50;74.80;;;;;;6097678;23;20061;-66
2022/08/28 01:52:45;;;;;;;16.05;9.45;;;24.30;75.40;;;;;;6097385;23;20437;-66
2022/08/28 01:55:11;;;;;;;13.68;8.98;;;24.30;75.50;;;;;;6097329;23;19998;-66
2022/08/28 01:57:49;;;;;;;14.90;10.30;;;24.20;75.60;;;;;;6097432;23;20014;-67
2022/08/28 02:00:16;;;;;;;15.48;9.88;;;24.30;75.70;;;;;;6096824;23;20096;-67
2022/08/28 02:02:41;;;;;;;20.75;9.68;;;24.30;75.90;;;;;;6097727;23;20378;-66
2022/08/28 02:05:08;;;;;;;15.85;10.52;;;24.30;75.80;;;;;;6097600;23;20050;-66
2022/08/28 02:07:34;;;;;;;16.10;10.50;;;24.20;75.80;;;;;;6097826;23;20011;-67
2022/08/28 02:10:01;;;;;;;19.85;10.65;;;24.20;75.80;;;;;;6097347;23;20354;-66
2022/08/28 02:12:27;;;;;;;15.45;10.23;;;24.20;75.90;;;;;;6097195;23;20061;-66
2022/08/28 02:14:53;;;;;;;18.25;10.48;;;24.20;76.00;;;;;;6097579;23;20034;-66
2022/08/28 02:17:19;;;;;;;17.75;10.68;;;24.20;76.00;;;;;;6097281;23;20429;-66
2022/08/28 02:19:45;;;;;;;16.08;10.52;;;24.20;76.20;;;;;;6097238;23;20002;-66
2022/08/28 02:22:12;;;;;;;13.90;10.45;;;24.20;76.00;;;;;;6097081;23;20010;-66
2022/08/28 02:24:38;;;;;;;20.27;11.63;;;24.20;76.20;;;;;;6097097;23;20382;-66
2022/08/28 02:27:05;;;;;;;17.42;10.80;;;24.20;76.30;;;;;;6096893;23;20493;-66
2022/08/28 02:29:30;;;;;;;16.85;11.18;;;24.20;76.40;;;;;;6097415;23;20045;-66
2022/08/28 02:31:56;;;;;;;17.02;12.07;;;24.20;76.40;;;;;;6097534;23;20014;-66
2022/08/28 02:34:22;;;;;;;17.13;11.45;;;24.20;76.40;;;;;;6097147;23;20026;-67
2022/08/28 02:36:48;;;;;;;20.25;10.25;;;24.20;76.40;;;;;;6096996;23;20015;-66
2022/08/28 02:39:15;;;;;;;20.10;10.40;;;24.20;76.30;;;;;;6097097;23;20006;-66
2022/08/28 02:41:41;;;;;;;18.70;9.95;;;24.20;76.30;;;;;;6096942;23;20058;-67
2022/08/28 02:44:06;;;;;;;14.27;9.35;;;24.20;76.40;;;;;;6096922;23;20007;-66
2022/08/28 02:46:32;;;;;;;14.27;9.80;;;24.20;76.30;;;;;;6097114;23;20437;-67
2022/08/28 02:48:58;;;;;;;11.00;8.82;;;24.20;76.20;;;;;;6097403;23;20011;-66
2022/08/28 02:51:24;;;;;;;14.30;9.60;;;24.20;76.20;;;;;;6096916;23;19999;-66
2022/08/28 02:53:51;;;;;;;14.35;8.77;;;24.20;76.30;;;;;;6096898;23;20006;-66
2022/08/28 02:56:17;;;;;;;14.82;8.95;;;24.20;75.80;;;;;;6097306;23;20037;-66
2022/08/28 02:58:43;;;;;;;14.00;9.32;;;24.20;76.00;;;;;;6096578;23;20018;-66
2022/08/28 03:01:10;;;;;;;12.77;9.30;;;24.10;76.00;;;;;;6096999;23;20007;-66
2022/08/28 03:03:36;;;;;;;12.77;9.68;;;24.10;76.30;;;;;;6096955;23;20042;-66
2022/08/28 03:06:03;;;;;;;12.48;8.73;;;24.10;76.20;;;;;;6096541;23;20399;-66
2022/08/28 03:08:30;;;;;;;16.25;9.20;;;24.10;76.30;;;;;;6097359;23;20438;-66
2022/08/28 03:10:56;;;;;;;13.45;9.13;;;24.00;76.30;;;;;;6097343;23;20325;-66
2022/08/28 03:13:21;;;;;;;15.27;9.80;;;24.00;76.10;;;;;;6097314;23;20006;-66
2022/08/28 03:15:47;;;;;;;16.23;10.80;;;24.00;76.20;;;;;;6096871;23;20444;-66
2022/08/28 03:18:14;;;;;;;13.40;9.35;;;24.00;76.30;;;;;;6096835;23;20002;-67
2022/08/28 03:20:41;;;;;;;15.25;9.95;;;24.00;76.30;;;;;;6096674;23;20025;-66
2022/08/28 03:23:25;;;;;;;14.02;9.77;;;24.00;76.30;;;;;;6096764;23;20025;-66
2022/08/28 03:26:02;;;;;;;13.27;9.88;;;24.00;76.50;;;;;;6097012;23;20003;-66
2022/08/28 03:28:31;;;;;;;14.13;9.70;;;24.00;76.70;;;;;;6096850;23;20002;-65
2022/08/28 03:30:57;;;;;;;19.48;10.18;;;24.10;76.70;;;;;;6097112;23;20015;-67
2022/08/28 03:33:24;;;;;;;15.48;9.88;;;24.00;76.50;;;;;;6096986;23;20412;-67
2022/08/28 03:35:49;;;;;;;16.05;9.48;;;24.00;76.40;;;;;;6097045;23;20371;-67
2022/08/28 03:38:15;;;;;;;17.23;9.55;;;24.00;76.50;;;;;;6096788;23;20030;-67
2022/08/28 03:40:44;;;;;;;16.05;10.18;;;24.00;76.40;;;;;;6096885;23;19994;-66
2022/08/28 03:43:12;;;;;;;12.25;9.93;;;24.10;76.50;;;;;;6096670;23;20018;-66
2022/08/28 03:45:39;;;;;;;15.32;9.50;;;24.00;76.30;;;;;;6097055;23;20010;-66
2022/08/28 03:48:06;;;;;;;13.00;9.85;;;24.00;76.30;;;;;;6096425;23;20014;-66
2022/08/28 03:50:32;;;;;;;9.95;7.82;;;24.00;76.30;;;;;;6096703;23;20077;-66
2022/08/28 03:52:58;;;;;;;15.07;9.10;;;24.00;76.40;;;;;;6096855;23;19998;-67
2022/08/28 03:55:24;;;;;;;15.13;9.07;;;24.00;76.40;;;;;;6097309;23;20011;-66
2022/08/28 03:57:50;;;;;;;12.80;8.30;;;24.00;76.50;;;;;;6098557;23;20449;-66
2022/08/28 04:00:17;;;;;;;11.45;8.95;;;24.00;76.50;;;;;;6098337;23;20029;-66
2022/08/28 04:02:44;;;;;;;10.65;7.97;;;23.90;76.60;;;;;;6098582;23;20049;-66
2022/08/28 04:05:11;;;;;;;13.05;8.15;;;23.90;76.80;;;;;;6098675;23;20006;-66
2022/08/28 04:07:38;;;;;;;13.85;8.00;;;23.90;76.90;;;;;;6098543;23;20337;-66
2022/08/28 04:10:05;;;;;;;11.45;7.13;;;23.80;77.90;;;;;;6098607;23;20378;-66
2022/08/28 04:12:31;;;;;;;19.17;7.60;;;23.70;78.30;;;;;;6098552;23;20081;-66
2022/08/28 04:14:57;;;;;;;13.18;7.10;;;23.70;79.50;;;;;;6098585;23;20337;-66
2022/08/28 04:17:24;;;;;;;10.80;5.55;;;23.60;80.00;;;;;;6098584;23;20018;-66
2022/08/28 04:19:53;;;;;;;15.52;6.70;;;23.60;80.30;;;;;;6098649;23;20002;-66
2022/08/28 04:22:19;;;;;;;24.88;7.07;;;23.60;80.60;;;;;;6098668;23;20041;-66
2022/08/28 04:24:44;;;;;;;26.05;7.20;;;23.50;81.70;;;;;;6098655;23;20007;-66
2022/08/28 04:27:10;;;;;;;23.48;6.50;;;23.50;82.40;;;;;;6098414;23;20074;-66
2022/08/28 04:29:36;;;;;;;13.05;6.10;;;23.50;82.80;;;;;;6098625;23;19998;-65
2022/08/28 04:32:02;;;;;;;12.05;4.95;;;23.40;82.90;;;;;;6098245;23;20041;-66
2022/08/28 04:34:27;;;;;;;7.80;4.13;;;23.30;83.00;;;;;;6098219;23;20002;-66
2022/08/28 04:36:53;;;;;;;6.57;3.75;;;23.30;83.00;;;;;;6098116;23;20401;-66
2022/08/28 04:39:19;;;;;;;4.53;2.95;;;23.20;82.80;;;;;;6098208;23;20033;-65
2022/08/28 04:41:44;;;;;;;3.95;2.67;;;23.20;82.90;;;;;;6097993;23;20093;-66
2022/08/28 04:44:10;;;;;;;7.20;3.17;;;23.20;83.20;;;;;;6098183;23;19999;-66
2022/08/28 04:46:36;;;;;;;5.15;2.58;;;23.10;83.50;;;;;;6097997;23;20090;-65
2022/08/28 04:49:03;;;;;;;4.93;3.20;;;23.10;83.80;;;;;;6098170;23;20073;-66
2022/08/28 04:51:30;;;;;;;4.97;2.90;;;23.00;83.60;;;;;;6098102;23;19999;-65
2022/08/28 04:53:57;;;;;;;4.75;2.92;;;23.00;83.70;;;;;;6098161;23;20053;-66
2022/08/28 04:56:23;;;;;;;3.67;2.75;;;23.00;83.80;;;;;;6097991;23;20002;-65
2022/08/28 04:58:48;;;;;;;4.32;2.20;;;23.00;83.90;;;;;;6097519;23;20351;-67
2022/08/28 05:01:17;;;;;;;9.95;2.17;;;23.00;83.90;;;;;;6098408;23;20034;-66
2022/08/28 05:03:44;;;;;;;4.38;1.98;;;23.10;83.80;;;;;;6097642;23;20011;-66
2022/08/28 05:06:12;;;;;;;3.58;1.77;;;23.00;83.70;;;;;;6097562;23;20330;-66
2022/08/28 05:08:39;;;;;;;1.48;1.35;;;23.00;83.80;;;;;;6097244;23;20015;-65
2022/08/28 05:11:14;;;;;;;2.00;1.48;;;23.00;83.80;;;;;;6097470;23;20426;-66
2022/08/28 05:13:40;;;;;;;2.00;1.67;;;23.00;83.70;;;;;;6097914;23;20382;-66
2022/08/28 05:16:06;;;;;;;3.72;2.13;;;23.00;83.20;;;;;;6097465;23;20010;-66
2022/08/28 05:18:32;;;;;;;4.45;2.40;;;23.00;83.10;;;;;;6097960;23;20014;-65
2022/08/28 05:20:58;;;;;;;5.03;2.70;;;23.00;83.10;;;;;;6097604;23;20002;-65
2022/08/28 05:23:24;;;;;;;6.40;3.00;;;23.00;83.20;;;;;;6097585;23;20496;-65
2022/08/28 05:25:49;;;;;;;7.07;3.70;;;23.00;83.30;;;;;;6097963;23;20061;-66
2022/08/28 05:28:16;;;;;;;8.55;3.85;;;23.00;83.40;;;;;;6098198;23;20003;-66
2022/08/28 05:30:43;;;;;;;6.28;3.53;;;23.00;83.60;;;;;;6097641;23;20307;-65
2022/08/28 05:33:12;;;;;;;12.90;3.85;;;23.00;83.60;;;;;;6096874;23;19998;-65
2022/08/28 05:35:42;;;;;;;4.88;3.30;;;22.90;83.70;;;;;;6096475;23;20650;-65
2022/08/28 05:38:07;;;;;;;8.07;3.90;;;22.90;83.90;;;;;;6096954;23;20002;-66
2022/08/28 05:40:38;;;;;;;7.93;4.15;;;22.90;84.30;;;;;;6097619;23;20013;-66
2022/08/28 05:43:04;;;;;;;6.40;3.50;;;22.80;84.50;;;;;;6096987;23;20018;-66
2022/08/28 05:45:30;;;;;;;9.88;3.85;;;22.80;84.60;;;;;;6097052;23;20311;-66
2022/08/28 05:47:56;;;;;;;11.20;4.22;;;22.80;84.90;;;;;;6096964;23;20050;-65
2022/08/28 05:50:22;;;;;;;6.22;3.63;;;22.80;85.10;;;;;;6097027;23;20010;-65
2022/08/28 05:52:47;;;;;;;8.68;3.90;;;22.70;85.10;;;;;;6096744;23;20064;-66
2022/08/28 05:55:13;;;;;;;11.18;4.22;;;22.70;85.10;;;;;;6096867;23;20007;-66
2022/08/28 05:57:40;;;;;;;10.35;4.25;;;22.70;85.20;;;;;;6097117;23;20381;-65
2022/08/28 06:00:08;;;;;;;6.82;4.07;;;22.70;85.30;;;;;;6096986;23;20457;-66
2022/08/28 06:02:34;;;;;;;10.13;3.90;;;22.70;85.40;;;;;;6097146;23;20426;-66
2022/08/28 06:05:01;;;;;;;7.75;3.85;;;22.70;85.60;;;;;;6097402;23;20009;-66
2022/08/28 06:07:27;;;;;;;8.25;3.45;;;22.70;85.90;;;;;;6097342;23;20069;-66
2022/08/28 06:09:52;;;;;;;6.00;3.50;;;22.70;86.00;;;;;;6097527;23;20057;-66
2022/08/28 06:12:19;;;;;;;8.85;4.10;;;22.70;86.00;;;;;;6097192;23;20410;-66
2022/08/28 06:14:45;;;;;;;8.55;3.40;;;22.70;86.00;;;;;;6097526;23;20005;-66
2022/08/28 06:17:11;;;;;;;4.55;3.05;;;22.70;85.80;;;;;;6097614;23;20010;-66
2022/08/28 06:19:37;;;;;;;10.77;3.80;;;22.70;85.70;;;;;;6097004;23;20034;-66
2022/08/28 06:22:03;;;;;;;5.20;2.80;;;22.70;85.60;;;;;;6097201;23;20337;-66
2022/08/28 06:24:30;;;;;;;9.75;3.28;;;22.70;85.70;;;;;;6097037;23;20329;-66
2022/08/28 06:26:57;;;;;;;4.30;3.03;;;22.70;85.60;;;;;;6097090;23;20008;-65
2022/08/28 06:29:23;;;;;;;6.70;3.22;;;22.70;85.70;;;;;;6097493;23;20041;-66
2022/08/28 06:31:54;;;;;;;4.93;3.03;;;22.70;85.70;;;;;;6097362;23;20006;-66
2022/08/28 06:34:20;;;;;;;5.50;2.83;;;22.70;85.70;;;;;;6097548;23;20345;-66
2022/08/28 06:36:46;;;;;;;4.90;3.72;;;22.70;85.70;;;;;;6097083;23;20003;-65
2022/08/28 06:39:13;;;;;;;7.00;4.00;;;22.60;85.60;;;;;;6096998;23;20003;-66
2022/08/28 06:41:42;;;;;;;5.68;3.90;;;22.70;85.80;;;;;;6097386;23;20090;-65
2022/08/28 06:44:12;;;;;;;7.38;4.00;;;22.60;86.00;;;;;;6097132;23;20334;-66
2022/08/28 06:46:39;;;;;;;8.40;4.40;;;22.60;85.90;;;;;;6097085;23;20006;-65
2022/08/28 06:49:06;;;;;;;12.82;4.47;;;22.60;86.00;;;;;;6097010;23;20010;-66
2022/08/28 06:51:33;;;;;;;8.45;4.97;;;22.60;86.30;;;;;;6096927;23;19999;-66
2022/08/28 06:53:59;;;;;;;7.88;5.22;;;22.70;86.40;;;;;;6096951;23;20014;-66
2022/08/28 06:56:25;;;;;;;12.57;5.57;;;22.70;86.60;;;;;;6096896;23;20462;-66
2022/08/28 06:58:51;;;;;;;6.95;5.07;;;22.70;86.80;;;;;;6097054;23;20097;-65
2022/08/28 07:01:22;;;;;;;8.73;5.32;;;22.80;87.00;;;;;;6096842;23;20456;-66
2022/08/28 07:03:50;;;;;;;10.02;6.25;;;22.90;87.40;;;;;;6096799;23;20014;-66
2022/08/28 07:06:16;;;;;;;10.35;5.95;;;22.90;87.50;;;;;;6096699;23;20053;-66
2022/08/28 07:08:43;;;;;;;7.40;5.72;;;23.00;87.30;;;;;;6096855;23;19999;-66
2022/08/28 07:11:19;;;;;;;10.95;5.82;;;23.00;87.50;;;;;;6097076;23;20082;-66
2022/08/28 07:13:45;;;;;;;7.72;5.80;;;23.10;87.30;;;;;;6097245;23;20010;-66
2022/08/28 07:16:14;;;;;;;7.70;6.30;;;23.20;87.20;;;;;;6096549;23;20078;-66
2022/08/28 07:18:40;;;;;;;8.75;6.10;;;23.20;87.40;;;;;;6097247;23;20356;-66
2022/08/28 07:21:06;;;;;;;8.85;6.20;;;23.30;87.30;;;;;;6097120;23;20334;-66
2022/08/28 07:23:34;;;;;;;9.38;6.35;;;23.40;87.10;;;;;;6096960;23;20006;-66
2022/08/28 07:26:04;;;;;;;9.40;6.05;;;23.50;87.10;;;;;;6096911;23;20429;-66
2022/08/28 07:28:30;;;;;;;7.38;5.40;;;23.50;86.90;;;;;;6096440;23;20434;-66
2022/08/28 07:31:02;;;;;;;11.85;6.22;;;23.60;86.60;;;;;;6097723;23;20015;-67
2022/08/28 07:33:29;;;;;;;6.93;6.05;;;23.60;86.60;;;;;;6098926;23;20389;-66
2022/08/28 07:35:56;;;;;;;8.23;6.07;;;23.70;86.80;;;;;;6099241;23;20004;-67
2022/08/28 07:38:24;;;;;;;10.80;5.90;;;23.70;86.70;;;;;;6098813;23;20010;-66
2022/08/28 07:40:50;;;;;;;7.30;5.82;;;23.80;86.50;;;;;;6098825;23;19999;-66
2022/08/28 07:46:02;;;;;;;9.50;5.93;;;23.90;86.40;;;;;;6099120;23;20397;-67
2022/08/28 07:48:28;;;;;;;10.25;6.68;;;24.00;86.60;;;;;;6099054;23;20336;-66
2022/08/28 07:50:54;;;;;;;8.93;6.25;;;24.00;86.20;;;;;;6098580;23;20081;-66
2022/08/28 07:53:20;;;;;;;10.55;6.35;;;24.10;85.70;;;;;;6098669;23;20006;-66
2022/08/28 07:55:49;;;;;;;11.18;5.63;;;24.20;85.50;;;;;;6098465;23;20009;-66
2022/08/28 07:58:16;;;;;;;8.20;6.38;;;24.30;85.40;;;;;;6098417;23;20081;-66
2022/08/28 08:00:42;;;;;;;8.57;5.95;;;24.30;85.30;;;;;;6098729;23;20393;-66
2022/08/28 08:03:08;;;;;;;6.97;5.95;;;24.40;85.00;;;;;;6098432;23;20010;-66
2022/08/28 08:05:34;;;;;;;10.02;6.57;;;24.50;85.20;;;;;;6098462;23;20002;-66
2022/08/28 08:07:59;;;;;;;9.38;6.85;;;24.50;85.20;;;;;;6098516;23;20010;-66
2022/08/28 08:10:25;;;;;;;9.85;6.30;;;24.60;84.90;;;;;;6098324;23;20022;-66
2022/08/28 08:12:51;;;;;;;15.77;6.40;;;24.70;84.90;;;;;;6098281;23;20006;-66
2022/08/28 08:15:17;;;;;;;9.90;5.85;;;24.70;84.30;;;;;;6098366;23;20337;-66
2022/08/28 08:17:43;;;;;;;7.28;5.95;;;24.80;83.90;;;;;;6098542;23;20007;-66
2022/08/28 08:20:10;;;;;;;9.68;6.53;;;24.90;83.70;;;;;;6098249;23;20003;-66
2022/08/28 08:22:36;;;;;;;10.55;6.38;;;24.90;83.40;;;;;;6098619;23;20023;-67
2022/08/28 08:25:04;;;;;;;9.15;6.80;;;25.00;82.40;;;;;;6098070;23;20002;-66
2022/08/28 08:27:30;;;;;;;9.35;6.25;;;25.10;81.80;;;;;;6098368;23;20010;-67
2022/08/28 08:29:56;;;;;;;9.90;6.13;;;25.20;81.90;;;;;;6098515;23;20371;-66
2022/08/28 08:32:22;;;;;;;10.90;6.45;;;25.30;81.70;;;;;;6098162;23;20013;-66
2022/08/28 08:34:48;;;;;;;11.75;7.05;;;25.40;80.50;;;;;;6098520;23;20007;-66
2022/08/28 08:37:14;;;;;;;10.57;6.80;;;25.40;79.90;;;;;;6098408;23;20022;-66
2022/08/28 08:39:41;;;;;;;8.43;6.43;;;25.60;79.80;;;;;;6098225;23;19998;-66
2022/08/28 08:42:30;;;;;;;7.57;6.25;;;25.60;79.10;;;;;;6097769;23;20014;-66
2022/08/28 08:44:59;;;;;;;13.77;7.13;;;25.70;79.70;;;;;;6098497;23;20083;-66
2022/08/28 08:47:51;;;;;;;9.23;6.43;;;25.80;79.50;;;;;;6098489;23;20073;-66
2022/08/28 08:50:22;;;;;;;8.95;6.82;;;25.90;79.40;;;;;;6098326;23;20017;-66
2022/08/28 08:53:07;;;;;;;8.85;5.80;;;25.90;79.20;;;;;;6098097;23;20010;-66
2022/08/28 08:55:35;;;;;;;6.65;5.85;;;26.00;79.00;;;;;;6098075;23;20041;-66
2022/08/28 08:58:03;;;;;;;10.18;6.45;;;26.10;78.70;;;;;;6098595;23;20097;-66
2022/08/28 09:00:33;;;;;;;9.00;6.53;;;26.20;77.70;;;;;;6097938;23;20022;-66
2022/08/28 09:03:08;;;;;;;11.02;6.22;;;26.30;77.40;;;;;;6097792;23;20037;-65
2022/08/28 09:06:01;;;;;;;9.35;5.95;;;26.30;77.60;;;;;;6097801;23;20002;-66
2022/08/28 09:08:44;;;;;;;10.65;6.32;;;26.40;77.20;;;;;;6098088;23;20465;-66
2022/08/28 09:11:39;;;;;;;9.13;6.28;;;26.50;77.20;;;;;;6098219;23;20099;-66
2022/08/28 09:14:43;;;;;;;12.23;6.30;;;26.50;77.00;;;;;;6098072;23;20009;-66
2022/08/28 09:17:11;;;;;;;9.85;5.82;;;26.50;76.50;;;;;;6097819;23;20007;-66
2022/08/28 09:19:37;;;;;;;9.85;5.97;;;26.60;76.50;;;;;;6097850;23;20002;-66
2022/08/28 09:22:03;;;;;;;10.63;5.63;;;26.70;76.60;;;;;;6097576;23;20105;-66
2022/08/28 09:24:32;;;;;;;11.02;6.25;;;26.70;76.40;;;;;;6097693;23;20011;-66
2022/08/28 09:27:25;;;;;;;6.95;6.07;;;26.80;76.10;;;;;;6097989;23;20006;-66
2022/08/28 09:30:06;;;;;;;8.38;5.90;;;26.80;75.70;;;;;;6098035;23;20038;-67
2022/08/28 09:32:45;;;;;;;8.85;5.82;;;26.80;75.10;;;;;;6097633;23;20082;-66
2022/08/28 09:35:17;;;;;;;11.82;6.50;;;26.80;75.30;;;;;;6098041;23;20377;-66
2022/08/28 09:37:43;;;;;;;12.30;5.95;;;26.80;75.50;;;;;;6097485;23;20025;-67
2022/08/28 09:40:20;;;;;;;8.80;6.05;;;26.80;75.40;;;;;;6097852;23;20015;-66
2022/08/28 09:43:30;;;;;;;11.15;6.18;;;26.80;75.00;;;;;;6097729;23;20058;-66
2022/08/28 09:46:03;;;;;;;10.35;6.07;;;26.80;75.20;;;;;;6086784;23;20014;-66
2022/08/28 09:48:34;;;;;;;7.68;5.55;;;26.80;74.90;;;;;;6097631;23;20009;-66
2022/08/28 09:51:09;;;;;;;13.80;6.30;;;26.70;74.60;;;;;;6097527;23;20325;-66
2022/08/28 09:53:42;;;;;;;10.45;5.68;;;26.80;74.40;;;;;;6097434;23;20002;-66
2022/08/28 09:56:27;;;;;;;11.98;6.35;;;26.70;74.30;;;;;;6097783;23;20014;-66
2022/08/28 09:59:07;;;;;;;10.23;6.28;;;26.60;74.60;;;;;;6097626;23;20018;-66
2022/08/28 10:02:09;;;;;;;7.75;6.40;;;26.60;75.20;;;;;;6097142;23;20366;-67
2022/08/28 10:04:56;;;;;;;9.93;5.82;;;26.50;75.70;;;;;;6049905;23;20057;-67
2022/08/28 10:07:44;;;;;;;9.15;6.30;;;26.50;75.10;;;;;;6097396;23;20053;-66
2022/08/28 10:10:29;;;;;;;10.63;6.38;;;26.40;74.70;;;;;;6097526;23;20050;-66
2022/08/28 10:13:26;;;;;;;8.95;6.10;;;26.30;74.70;;;;;;6097164;23;20014;-66
2022/08/28 10:16:29;;;;;;;9.93;6.32;;;26.30;74.30;;;;;;6097588;23;20063;-66
2022/08/28 10:19:10;;;;;;;9.45;5.78;;;26.30;74.10;;;;;;6097470;23;20006;-66
2022/08/28 10:21:43;;;;;;;12.35;6.60;;;26.30;74.00;;;;;;6097110;23;20430;-66
2022/08/28 10:24:36;;;;;;;7.72;5.95;;;26.20;74.10;;;;;;6097092;23;20307;-66
2022/08/28 10:27:22;;;;;;;10.50;4.97;;;26.10;73.00;;;;;;6097219;23;20445;-66
2022/08/28 10:30:06;;;;;;;5.97;4.30;;;26.10;73.30;;;;;;6097567;23;20022;-67
2022/08/28 10:33:09;;;;;;;6.05;3.65;;;26.00;72.90;;;;;;6097114;23;20337;-66
2022/08/28 10:35:56;;;;;;;7.93;4.10;;;26.00;72.60;;;;;;6071458;23;20007;-66
2022/08/28 10:38:36;;;;;;;6.32;3.90;;;25.90;71.40;;;;;;6097189;23;20013;-66
2022/08/28 10:41:44;;;;;;;8.95;3.60;;;25.90;71.00;;;;;;6097065;23;20334;-66
2022/08/28 10:44:18;;;;;;;6.18;4.07;;;25.90;69.60;;;;;;6008817;23;20016;-66
2022/08/28 10:46:50;;;;;;;4.40;3.33;;;25.90;68.80;;;;;;6008929;23;20008;-66
2022/08/28 10:49:43;;;;;;;9.25;3.35;;;25.90;68.70;;;;;;6058504;23;20010;-66
2022/08/28 10:52:14;;;;;;;5.82;3.40;;;25.90;69.30;;;;;;6096611;23;20011;-66
2022/08/28 10:54:43;;;;;;;;;;;25.90;66.50;;;;;;6097468;23;20010;-66
2022/08/28 10:57:30;;;;;;;6.25;2.88;;;25.80;66.80;;;;;;6097024;23;19988;-66
2022/08/28 10:59:58;;;;;;;6.30;3.78;;;25.80;66.80;;;;;;6096610;23;20042;-66
2022/08/28 11:02:26;;;;;;;9.75;3.83;;;25.80;67.40;;;;;;6096841;23;20349;-65
2022/08/28 11:04:54;;;;;;;5.25;3.85;;;25.70;69.50;;;;;;6097153;23;20295;-66
2022/08/28 11:07:36;;;;;;;4.75;3.40;;;25.70;71.10;;;;;;6096986;23;20374;-66
2022/08/28 11:10:19;;;;;;;5.15;3.38;;;25.60;73.10;;;;;;6097280;23;20326;-66
2022/08/28 11:12:47;;;;;;;6.70;3.88;;;25.50;73.90;;;;;;6097031;23;20307;-66
2022/08/28 11:15:28;;;;;;;7.93;4.57;;;25.40;75.20;;;;;;6097032;23;19998;-66
2022/08/28 11:18:12;;;;;;;11.50;4.05;;;25.30;75.80;;;;;;6097291;23;20426;-66
2022/08/28 11:20:40;;;;;;;7.97;4.80;;;25.20;76.30;;;;;;6096731;23;20011;-67
2022/08/28 11:23:09;;;;;;;8.43;4.13;;;25.10;77.30;;;;;;6096823;23;20006;-66
2022/08/28 11:25:44;;;;;;;7.93;4.40;;;25.00;77.30;;;;;;6096592;23;20003;-66
2022/08/28 11:28:23;;;;;;;12.27;4.28;;;25.00;77.40;;;;;;6096632;23;20013;-66
2022/08/28 11:31:04;;;;;;;9.75;4.32;;;24.90;77.90;;;;;;6097082;23;20002;-65
2022/08/28 11:33:39;;;;;;;5.80;3.97;;;24.90;78.20;;;;;;6096826;23;20006;-66
2022/08/28 11:36:11;;;;;;;8.43;4.10;;;24.80;78.20;;;;;;6097140;23;19998;-66
2022/08/28 11:38:42;;;;;;;10.25;4.25;;;24.80;79.00;;;;;;6097178;23;20046;-66
2022/08/28 11:41:26;;;;;;;5.43;3.72;;;24.80;79.00;;;;;;6096741;23;20006;-66
2022/08/28 11:44:07;;;;;;;5.32;3.85;;;24.80;79.30;;;;;;6097263;23;20010;-66
2022/08/28 11:46:51;;;;;;;9.43;4.00;;;24.70;79.50;;;;;;6096602;23;20489;-66
2022/08/28 11:49:25;;;;;;;5.97;3.95;;;24.80;80.00;;;;;;6097309;23;20230;-66
2022/08/28 11:52:15;;;;;;;7.50;3.92;;;24.70;79.80;;;;;;6096720;23;20018;-66
2022/08/28 11:55:18;;;;;;;8.68;5.13;;;24.80;82.20;;;;;;6097077;23;20373;-66
2022/08/28 11:58:12;;;;;;;5.78;4.10;;;24.80;82.70;;;;;;6097006;23;20033;-66
2022/08/28 12:01:08;;;;;;;8.18;3.63;;;24.90;82.50;;;;;;6096802;23;20018;-66
2022/08/28 12:03:43;;;;;;;7.63;3.95;;;25.00;80.90;;;;;;6096666;23;20015;-66
2022/08/28 12:06:10;;;;;;;8.50;3.97;;;25.10;80.90;;;;;;6097090;23;19998;-66
2022/08/28 12:08:50;;;;;;;8.18;4.90;;;25.20;81.00;;;;;;6096742;23;20030;-66
2022/08/28 12:11:40;;;;;;;6.55;3.75;;;25.20;81.60;;;;;;6097171;23;20006;-66
2022/08/28 12:14:30;;;;;;;6.43;4.10;;;25.30;81.20;;;;;;6096599;23;20396;-66
2022/08/28 12:16:58;;;;;;;5.30;3.55;;;25.30;80.50;;;;;;6052815;23;20062;-66
2022/08/28 12:19:49;;;;;;;5.00;3.63;;;25.40;81.00;;;;;;6098481;23;20003;-66
2022/08/28 12:22:17;;;;;;;6.43;3.50;;;25.40;79.80;;;;;;6085501;23;20023;-66
2022/08/28 12:24:48;;;;;;;6.22;3.70;;;25.60;79.30;;;;;;6098465;23;20002;-66
2022/08/28 12:27:14;;;;;;;6.53;3.65;;;25.80;79.40;;;;;;6098815;23;20407;-66
2022/08/28 12:30:00;;;;;;;6.18;3.60;;;26.00;79.00;;;;;;6098227;23;20006;-66
2022/08/28 12:32:53;;;;;;;6.20;3.15;;;26.10;78.20;;;;;;6098055;23;19999;-67
2022/08/28 12:35:22;;;;;;;4.90;3.60;;;26.30;77.60;;;;;;6098459;23;20426;-66
2022/08/28 12:37:53;;;;;;;5.07;3.72;;;26.40;77.80;;;;;;6098331;23;20009;-66
2022/08/28 12:40:40;;;;;;;5.25;3.47;;;26.70;77.30;;;;;;6098361;23;20010;-67
2022/08/28 12:43:09;;;;;;;6.05;3.25;;;26.90;76.30;;;;;;6098125;23;20010;-66
2022/08/28 12:45:39;;;;;;;4.85;3.13;;;27.10;75.60;;;;;;6098427;23;20066;-67
2022/08/28 12:48:20;;;;;;;7.53;3.65;;;27.30;74.90;;;;;;6098205;23;20430;-64
2022/08/28 12:50:46;;;;;;;4.85;3.60;;;27.50;73.60;;;;;;6098051;23;20002;-66
2022/08/28 12:53:16;;;;;;;4.20;3.25;;;27.70;72.40;;;;;;6098578;23;20014;-66
2022/08/28 12:55:44;;;;;;;3.78;3.05;;;27.80;70.50;;;;;;6097925;23;20049;-66
2022/08/28 12:58:32;;;;;;;7.70;3.75;;;28.00;71.20;;;;;;6098305;23;20432;-66
2022/08/28 13:01:02;;;;;;;4.65;3.33;;;28.10;70.50;;;;;;6097928;23;20153;-67
2022/08/28 13:03:29;;;;;;;6.38;3.50;;;28.20;68.80;;;;;;6097981;23;20014;-66